createdAt,value
2023-01-22T00:00:34.605Z,10.17
2023-01-22T00:03:03.771Z,11.37
2023-01-22T00:05:31.562Z,10.60
2023-01-22T00:07:59.330Z,10.67
2023-01-22T00:10:27.170Z,9.83
2023-01-22T00:12:54.918Z,10.07
2023-01-22T00:15:22.657Z,9.40
2023-01-22T00:17:50.653Z,8.40
2023-01-22T00:20:20.481Z,10.07
2023-01-22T00:22:48.413Z,9.30
2023-01-22T00:25:16.177Z,10.27
2023-01-22T00:27:43.945Z,8.90
2023-01-22T00:30:12.773Z,9.60
2023-01-22T00:32:40.507Z,10.03
2023-01-22T00:35:08.857Z,9.37
2023-01-22T00:37:37.995Z,9.97
2023-01-22T00:40:07.094Z,9.10
2023-01-22T00:42:34.865Z,9.93
2023-01-22T00:45:02.624Z,8.57
2023-01-22T00:47:30.573Z,9.00
2023-01-22T00:49:58.357Z,9.13
2023-01-22T00:52:26.218Z,9.03
2023-01-22T00:54:55.321Z,8.00
2023-01-22T00:57:23.126Z,8.33
2023-01-22T00:59:50.939Z,8.33
2023-01-22T01:02:19.402Z,9.23
2023-01-22T01:04:47.397Z,8.97
2023-01-22T01:07:15.232Z,9.20
2023-01-22T01:09:42.987Z,8.13
2023-01-22T01:12:12.107Z,9.83
2023-01-22T01:14:39.865Z,9.17
2023-01-22T01:17:07.626Z,9.33
2023-01-22T01:19:35.366Z,9.43
2023-01-22T01:22:03.130Z,9.57
2023-01-22T01:24:30.862Z,9.43
2023-01-22T01:26:58.595Z,9.20
2023-01-22T01:29:27.664Z,10.13
2023-01-22T01:31:57.525Z,8.77
2023-01-22T01:34:25.378Z,9.30
2023-01-22T01:36:53.122Z,8.20
2023-01-22T01:39:20.994Z,9.60
2023-01-22T01:41:49.979Z,9.93
2023-01-22T01:44:19.654Z,8.90
2023-01-22T01:46:52.428Z,8.77
2023-01-22T01:49:26.747Z,8.97
2023-01-22T01:51:57.463Z,7.93
2023-01-22T01:54:25.469Z,8.83
2023-01-22T01:56:56.874Z,8.73
2023-01-22T01:59:24.869Z,9.03
2023-01-22T02:01:56.369Z,7.97
2023-01-22T02:04:25.118Z,8.03
2023-01-22T02:06:52.864Z,7.70
2023-01-22T02:09:20.935Z,9.43
2023-01-22T02:11:50.710Z,8.77
2023-01-22T02:14:21.246Z,9.27
2023-01-22T02:16:49.038Z,9.60
2023-01-22T02:19:18.710Z,7.97
2023-01-22T02:21:47.853Z,8.90
2023-01-22T02:24:17.113Z,9.10
2023-01-22T02:26:46.564Z,8.13
2023-01-22T02:29:15.422Z,7.77
2023-01-22T02:31:43.726Z,8.87
2023-01-22T02:34:12.261Z,9.27
2023-01-22T02:36:41.030Z,9.00
2023-01-22T02:39:10.120Z,8.63
2023-01-22T02:41:37.886Z,8.30
2023-01-22T02:44:07.377Z,8.37
2023-01-22T02:46:36.195Z,8.37
2023-01-22T02:49:07.117Z,9.00
2023-01-22T02:51:34.894Z,8.43
2023-01-22T02:54:02.792Z,8.03
2023-01-22T02:56:31.917Z,8.17
2023-01-22T02:59:01.224Z,9.17
2023-01-22T03:01:29.094Z,9.00
2023-01-22T03:03:59.004Z,8.27
2023-01-22T03:06:28.541Z,8.27
2023-01-22T03:08:58.796Z,7.80
2023-01-22T03:11:28.169Z,8.10
2023-01-22T03:14:15.640Z,8.17
2023-01-22T03:17:02.031Z,8.10
2023-01-22T03:19:47.846Z,8.80
2023-01-22T03:22:16.491Z,8.70
2023-01-22T03:24:44.673Z,8.77
2023-01-22T03:27:12.440Z,8.37
2023-01-22T03:29:41.547Z,8.70
2023-01-22T03:32:09.352Z,8.43
2023-01-22T03:34:37.619Z,9.20
2023-01-22T03:37:05.771Z,9.07
2023-01-22T03:39:34.016Z,8.83
2023-01-22T03:42:02.160Z,9.40
2023-01-22T03:44:29.960Z,8.07
2023-01-22T03:46:59.147Z,8.77
2023-01-22T03:49:26.879Z,8.47
2023-01-22T03:51:54.671Z,8.10
2023-01-22T03:54:22.495Z,8.47
2023-01-22T03:56:50.230Z,8.73
2023-01-22T03:59:18.020Z,8.37
2023-01-22T04:01:45.762Z,8.00
2023-01-22T04:04:14.849Z,7.53
2023-01-22T04:06:42.705Z,8.53
2023-01-22T04:09:10.537Z,9.33
2023-01-22T04:11:38.295Z,9.00
2023-01-22T04:14:06.042Z,9.53
2023-01-22T04:16:33.793Z,8.50
2023-01-22T04:19:01.541Z,8.97
2023-01-22T04:21:30.760Z,9.97
2023-01-22T04:23:58.535Z,8.90
2023-01-22T04:26:26.436Z,9.47
2023-01-22T04:28:55.087Z,9.93
2023-01-22T04:31:23.137Z,9.70
2023-01-22T04:33:51.013Z,8.30
2023-01-22T04:36:19.046Z,9.47
2023-01-22T04:38:48.117Z,10.20
2023-01-22T04:41:15.898Z,9.60
2023-01-22T04:43:43.656Z,10.13
2023-01-22T04:46:11.565Z,10.27
2023-01-22T04:48:39.414Z,10.60
2023-01-22T04:51:07.431Z,11.03
2023-01-22T04:53:35.339Z,10.87
2023-01-22T04:56:05.811Z,10.70
2023-01-22T04:58:33.546Z,10.50
2023-01-22T05:01:01.305Z,10.07
2023-01-22T05:03:29.095Z,9.90
2023-01-22T05:05:56.870Z,11.07
2023-01-22T05:08:24.664Z,11.57
2023-01-22T05:10:52.407Z,10.47
2023-01-22T05:13:21.636Z,10.60
2023-01-22T05:15:49.450Z,11.37
2023-01-22T05:18:17.202Z,11.87
2023-01-22T05:20:44.964Z,10.53
2023-01-22T05:23:12.738Z,12.67
2023-01-22T05:25:40.524Z,11.93
2023-01-22T05:28:08.276Z,11.77
2023-01-22T05:30:37.361Z,11.60
2023-01-22T05:33:05.275Z,13.30
2023-01-22T05:35:33.104Z,11.63
2023-01-22T05:38:00.888Z,12.03
2023-01-22T05:40:28.628Z,12.80
2023-01-22T05:42:56.890Z,12.13
2023-01-22T05:45:24.798Z,12.17
2023-01-22T05:47:54.429Z,12.13
2023-01-22T05:50:22.436Z,12.67
2023-01-22T05:52:55.310Z,12.33
2023-01-22T05:59:10.810Z,11.13
2023-01-22T06:01:38.601Z,11.53
2023-01-22T06:04:07.976Z,11.77
2023-01-22T06:06:35.770Z,11.77
2023-01-22T06:09:03.553Z,13.63
2023-01-22T06:11:31.316Z,12.27
2023-01-22T06:13:59.162Z,11.87
2023-01-22T06:16:26.942Z,13.20
2023-01-22T06:18:55.472Z,10.53
2023-01-22T06:21:24.586Z,10.70
2023-01-22T06:23:52.346Z,12.53
2023-01-22T06:26:20.114Z,12.83
2023-01-22T06:28:47.881Z,13.10
2023-01-22T06:31:15.739Z,14.07
2023-01-22T06:33:43.580Z,13.40
2023-01-22T06:36:11.389Z,12.67
2023-01-22T06:38:40.503Z,11.40
2023-01-22T06:41:08.341Z,12.83
2023-01-22T06:43:37.421Z,14.53
2023-01-22T06:46:06.419Z,13.07
2023-01-22T06:48:34.235Z,15.07
2023-01-22T06:51:02.587Z,13.40
2023-01-22T06:53:30.421Z,12.67
2023-01-22T06:56:01.549Z,13.37
2023-01-22T06:58:29.978Z,14.63
2023-01-22T07:01:01.506Z,12.63
2023-01-22T07:03:29.396Z,11.13
2023-01-22T07:05:58.865Z,12.17
2023-01-22T07:08:27.558Z,12.63
2023-01-22T07:10:55.357Z,11.87
2023-01-22T07:13:24.504Z,14.53
2023-01-22T07:15:53.440Z,13.17
2023-01-22T07:18:23.756Z,12.13
2023-01-22T07:20:51.863Z,13.40
2023-01-22T07:23:19.726Z,12.33
2023-01-22T07:25:47.572Z,11.80
2023-01-22T07:28:16.264Z,12.50
2023-01-22T07:30:46.990Z,13.00
2023-01-22T07:33:15.457Z,11.67
2023-01-22T07:35:43.465Z,12.93
2023-01-22T07:38:11.263Z,13.50
2023-01-22T07:40:39.145Z,12.60
2023-01-22T07:43:07.931Z,13.07
2023-01-22T07:45:35.997Z,12.47
2023-01-22T07:48:07.662Z,15.10
2023-01-22T07:50:36.916Z,12.70
2023-01-22T07:53:04.788Z,14.03
2023-01-22T07:55:32.700Z,13.77
2023-01-22T07:58:01.947Z,13.90
2023-01-22T08:00:30.098Z,13.87
2023-01-22T08:02:57.905Z,13.53
2023-01-22T08:05:27.233Z,14.73
2023-01-22T08:07:55.027Z,13.13
2023-01-22T08:10:22.794Z,13.57
2023-01-22T08:12:50.581Z,12.80
2023-01-22T08:15:18.533Z,12.13
2023-01-22T08:17:50.109Z,12.67
2023-01-22T08:20:18.646Z,13.20
2023-01-22T08:22:48.011Z,16.87
2023-01-22T08:25:16.086Z,13.30
2023-01-22T08:27:43.994Z,15.23
2023-01-22T08:30:12.857Z,17.40
2023-01-22T08:32:41.991Z,17.23
2023-01-22T08:35:12.401Z,13.53
2023-01-22T08:37:43.785Z,14.73
2023-01-22T08:40:13.886Z,16.87
2023-01-22T08:42:41.833Z,14.23
2023-01-22T08:45:10.432Z,29.07
2023-01-22T08:47:38.188Z,18.63
2023-01-22T08:50:06.884Z,17.33
2023-01-22T08:52:34.656Z,13.93
2023-01-22T08:55:02.519Z,13.53
2023-01-22T08:57:31.640Z,11.30
2023-01-22T09:00:01.426Z,13.07
2023-01-22T09:02:29.656Z,12.07
2023-01-22T09:04:57.502Z,13.00
2023-01-22T09:07:25.263Z,11.33
2023-01-22T09:09:53.047Z,12.33
2023-01-22T09:12:20.856Z,11.67
2023-01-22T09:14:49.970Z,10.90
2023-01-22T09:17:17.767Z,12.23
2023-01-22T09:19:45.525Z,11.67
2023-01-22T09:22:13.309Z,10.47
2023-01-22T09:24:41.094Z,9.97
2023-01-22T09:27:09.654Z,10.07
2023-01-22T09:29:37.424Z,9.30
2023-01-22T09:32:07.055Z,10.43
2023-01-22T09:34:34.837Z,10.73
2023-01-22T09:37:07.693Z,10.37
2023-01-22T09:39:35.479Z,9.47
2023-01-22T09:42:05.074Z,9.00
2023-01-22T09:44:37.586Z,8.43
2023-01-22T09:47:11.416Z,9.70
2023-01-22T09:49:53.033Z,10.07
2023-01-22T09:52:21.807Z,10.03
2023-01-22T09:54:49.590Z,8.27
2023-01-22T09:57:30.817Z,11.30
2023-01-22T09:59:59.393Z,8.37
2023-01-22T10:02:32.838Z,9.93
2023-01-22T10:05:20.783Z,10.67
2023-01-22T10:07:53.714Z,7.73
2023-01-22T10:10:24.056Z,7.53
2023-01-22T10:12:56.493Z,7.97
2023-01-22T10:15:25.120Z,8.40
2023-01-22T10:17:56.657Z,8.70
2023-01-22T10:20:24.761Z,8.47
2023-01-22T10:22:56.150Z,9.13
2023-01-22T10:25:23.938Z,9.93
2023-01-22T10:28:00.690Z,9.27
2023-01-22T10:30:30.145Z,8.77
2023-01-22T10:33:04.869Z,8.60
2023-01-22T10:35:33.392Z,6.17
2023-01-22T10:38:01.777Z,7.37
2023-01-22T10:40:35.797Z,6.83
2023-01-22T10:43:12.196Z,8.07
2023-01-22T10:45:40.941Z,8.33
2023-01-22T10:48:15.445Z,7.27
2023-01-22T10:50:45.138Z,8.80
2023-01-22T10:53:21.255Z,6.97
2023-01-22T10:55:54.735Z,9.30
2023-01-22T10:58:25.349Z,10.17
2023-01-22T11:01:02.268Z,10.17
2023-01-22T11:03:36.011Z,6.20
2023-01-22T11:06:11.045Z,4.23
2023-01-22T11:08:46.422Z,5.10
2023-01-22T11:11:17.235Z,5.30
2023-01-22T11:13:51.980Z,5.87
2023-01-22T11:16:22.306Z,6.63
2023-01-22T11:18:56.756Z,6.30
2023-01-22T11:21:29.066Z,6.30
2023-01-22T11:24:04.042Z,6.77
2023-01-22T11:26:53.246Z,6.67
2023-01-22T11:29:36.925Z,6.93
2023-01-22T11:32:31.029Z,7.67
2023-01-22T11:35:05.866Z,7.10
2023-01-22T11:37:46.652Z,5.80
2023-01-22T11:40:23.480Z,5.63
2023-01-22T11:43:09.129Z,5.40
2023-01-22T11:45:54.422Z,5.17
2023-01-22T11:48:43.752Z,5.83
2023-01-22T11:51:24.467Z,6.60
2023-01-22T11:54:16.317Z,4.83
2023-01-22T11:56:52.772Z,4.70
2023-01-22T11:59:33.370Z,6.27
2023-01-22T12:02:23.439Z,5.50
2023-01-22T12:05:14.046Z,6.23
2023-01-22T12:08:06.493Z,6.80
2023-01-22T12:10:51.421Z,7.07
2023-01-22T12:13:31.432Z,8.87
2023-01-22T12:16:09.358Z,8.00
2023-01-22T12:19:06.469Z,8.17
2023-01-22T12:21:53.191Z,5.60
2023-01-22T12:24:26.732Z,5.50
2023-01-22T12:27:01.061Z,6.33
2023-01-22T12:29:33.983Z,5.83
2023-01-22T12:32:09.195Z,6.03
2023-01-22T12:34:45.027Z,5.57
2023-01-22T12:37:15.860Z,5.57
2023-01-22T12:39:54.772Z,4.90
2023-01-22T12:42:32.290Z,6.63
2023-01-22T12:45:14.548Z,6.43
2023-01-22T12:47:54.862Z,5.63
2023-01-22T12:50:25.591Z,5.70
2023-01-22T12:53:00.900Z,5.23
2023-01-22T12:55:36.042Z,5.77
2023-01-22T12:58:04.310Z,7.93
2023-01-22T13:00:35.584Z,6.80
2023-01-22T13:03:05.445Z,6.20
2023-01-22T13:05:51.156Z,8.03
2023-01-22T13:08:37.087Z,7.03
2023-01-22T13:11:08.835Z,6.43
2023-01-22T13:13:44.767Z,8.27
2023-01-22T13:16:24.006Z,5.90
2023-01-22T13:18:54.126Z,5.47
2023-01-22T13:21:27.276Z,7.33
2023-01-22T13:23:59.825Z,6.40
2023-01-22T13:26:30.807Z,6.50
2023-01-22T13:29:01.245Z,6.50
2023-01-22T13:31:29.556Z,7.37
2023-01-22T13:33:59.195Z,7.13
2023-01-22T13:36:28.212Z,6.77
2023-01-22T13:38:58.117Z,5.60
2023-01-22T13:41:31.214Z,6.40
2023-01-22T13:43:59.488Z,5.70
2023-01-22T13:46:29.338Z,7.30
2023-01-22T13:49:06.658Z,7.47
2023-01-22T13:51:36.112Z,6.40
2023-01-22T13:54:05.859Z,6.67
2023-01-22T13:56:35.765Z,7.43
2023-01-22T13:59:16.539Z,6.90
2023-01-22T14:01:44.357Z,6.53
2023-01-22T14:04:28.126Z,5.90
2023-01-22T14:06:56.597Z,6.30
2023-01-22T14:09:29.041Z,9.10
2023-01-22T14:11:59.242Z,6.80
2023-01-22T14:14:27.996Z,7.93
2023-01-22T14:16:55.916Z,7.67
2023-01-22T14:19:23.713Z,10.20
2023-01-22T14:21:51.477Z,9.37
2023-01-22T14:24:19.234Z,10.37
2023-01-22T14:26:47.033Z,8.70
2023-01-22T14:29:16.145Z,10.50
2023-01-22T14:31:44.005Z,11.17
2023-01-22T14:34:12.445Z,11.27
2023-01-22T14:36:40.243Z,10.73
2023-01-22T14:39:08.144Z,9.10
2023-01-22T14:41:36.005Z,11.50
2023-01-22T14:44:04.353Z,10.47
2023-01-22T14:46:33.654Z,10.40
2023-01-22T14:49:01.869Z,10.80
2023-01-22T14:51:29.764Z,9.77
2023-01-22T14:53:58.835Z,9.47
2023-01-22T14:56:26.862Z,9.77
2023-01-22T14:58:54.750Z,10.83
2023-01-22T15:01:23.744Z,9.97
2023-01-22T15:03:54.151Z,9.83
2023-01-22T15:06:22.026Z,10.37
2023-01-22T15:08:49.829Z,10.07
2023-01-22T15:11:17.726Z,8.93
2023-01-22T15:13:45.556Z,9.57
2023-01-22T15:16:13.470Z,10.60
2023-01-22T15:18:41.371Z,10.37
2023-01-22T15:21:11.588Z,10.17
2023-01-22T15:23:39.404Z,10.93
2023-01-22T15:26:09.467Z,10.90
2023-01-22T15:28:37.764Z,10.50
2023-01-22T15:31:07.833Z,10.37
2023-01-22T15:33:36.439Z,11.03
2023-01-22T15:36:05.314Z,10.73
2023-01-22T15:38:34.532Z,11.50
2023-01-22T15:41:18.482Z,14.40
2023-01-22T15:43:50.648Z,13.13
2023-01-22T15:46:19.192Z,11.57
2023-01-22T15:48:47.069Z,10.40
2023-01-22T15:51:15.887Z,15.10
2023-01-22T15:53:49.804Z,16.50
2023-01-22T15:56:18.289Z,16.60
2023-01-22T15:58:46.600Z,15.80
2023-01-22T16:01:14.450Z,14.67
2023-01-22T16:03:42.275Z,13.97
2023-01-22T16:06:11.885Z,13.43
2023-01-22T16:08:40.383Z,10.57
2023-01-22T16:11:09.965Z,12.53
2023-01-22T16:13:38.340Z,12.70
2023-01-22T16:16:08.826Z,15.87
2023-01-22T16:18:37.137Z,14.07
2023-01-22T16:21:06.121Z,12.90
2023-01-22T16:23:37.311Z,12.07
2023-01-22T16:26:07.101Z,14.13
2023-01-22T16:28:36.564Z,14.97
2023-01-22T16:31:05.621Z,16.27
2023-01-22T16:33:35.039Z,13.20
2023-01-22T16:36:05.352Z,14.00
2023-01-22T16:38:34.003Z,14.43
2023-01-22T16:41:24.137Z,14.37
2023-01-22T16:43:55.699Z,13.60
2023-01-22T16:46:25.421Z,12.37
2023-01-22T16:48:58.179Z,12.50
2023-01-22T16:51:27.947Z,12.33
2023-01-22T16:53:56.390Z,13.97
2023-01-22T16:56:24.246Z,14.00
2023-01-22T16:58:53.433Z,13.60
2023-01-22T17:01:22.183Z,13.70
2023-01-22T17:03:50.079Z,13.63
2023-01-22T17:06:24.515Z,15.83
2023-01-22T17:08:53.934Z,13.37
2023-01-22T17:11:21.901Z,14.37
2023-01-22T17:13:50.172Z,14.20
2023-01-22T17:16:20.346Z,13.47
2023-01-22T17:18:48.302Z,13.33
2023-01-22T17:21:18.904Z,15.80
2023-01-22T17:23:46.863Z,14.27
2023-01-22T17:26:16.474Z,13.80
2023-01-22T17:28:45.918Z,13.83
2023-01-22T17:31:16.408Z,13.23
2023-01-22T17:33:46.605Z,12.87
2023-01-22T17:36:16.301Z,13.57
2023-01-22T17:38:44.461Z,14.50
2023-01-22T17:41:15.808Z,13.73
2023-01-22T17:43:45.003Z,12.77
2023-01-22T17:46:15.220Z,13.70
2023-01-22T17:48:45.379Z,15.40
2023-01-22T17:51:15.437Z,15.00
2023-01-22T17:53:45.260Z,13.83
2023-01-22T17:56:14.904Z,15.00
2023-01-22T17:58:44.552Z,14.50
2023-01-22T18:01:15.063Z,14.60
2023-01-22T18:03:44.428Z,15.23
2023-01-22T18:06:13.889Z,15.90
2023-01-22T18:08:42.498Z,15.77
2023-01-22T18:11:12.481Z,14.67
2023-01-22T18:13:40.844Z,14.00
2023-01-22T18:16:12.044Z,13.83
2023-01-22T18:18:40.508Z,13.33
2023-01-22T18:21:11.248Z,12.37
2023-01-22T18:23:40.506Z,14.67
2023-01-22T18:26:09.273Z,15.10
2023-01-22T18:28:37.638Z,14.03
2023-01-22T18:31:07.359Z,16.23
2023-01-22T18:33:37.182Z,16.50
2023-01-22T18:36:08.659Z,17.10
2023-01-22T18:38:37.192Z,14.17
2023-01-22T18:41:07.588Z,15.20
2023-01-22T18:43:35.463Z,13.80
2023-01-22T18:46:04.619Z,14.20
2023-01-22T18:48:32.478Z,12.63
2023-01-22T18:51:00.552Z,14.03
2023-01-22T18:53:29.643Z,13.87
2023-01-22T18:56:00.266Z,13.40
2023-01-22T18:58:31.072Z,13.43
2023-01-22T19:01:00.184Z,14.33
2023-01-22T19:03:28.266Z,15.37
2023-01-22T19:05:56.873Z,13.47
2023-01-22T19:08:24.837Z,15.20
2023-01-22T19:10:53.026Z,15.20
2023-01-22T19:13:21.065Z,14.93
2023-01-22T19:15:50.333Z,16.77
2023-01-22T19:18:18.153Z,14.47
2023-01-22T19:20:45.994Z,16.07
2023-01-22T19:23:13.843Z,15.30
2023-01-22T19:25:41.679Z,15.13
2023-01-22T19:28:09.530Z,13.80
2023-01-22T19:30:37.327Z,13.70
2023-01-22T19:33:07.039Z,13.20
2023-01-22T19:35:34.924Z,14.10
2023-01-22T19:38:02.778Z,13.47
2023-01-22T19:40:30.567Z,16.40
2023-01-22T19:42:58.424Z,15.23
2023-01-22T19:45:26.338Z,15.07
2023-01-22T19:47:55.686Z,14.90
2023-01-22T19:50:25.238Z,13.57
2023-01-22T19:52:53.047Z,14.57
2023-01-22T19:55:24.523Z,17.03
2023-01-22T19:57:52.362Z,16.90
2023-01-22T20:00:20.756Z,16.13
2023-01-22T20:02:48.830Z,13.77
2023-01-22T20:05:18.147Z,11.80
2023-01-22T20:07:47.565Z,14.70
2023-01-22T20:10:18.931Z,14.70
2023-01-22T20:12:50.449Z,13.10
2023-01-22T20:15:19.088Z,14.67
2023-01-22T20:17:47.071Z,12.97
2023-01-22T20:20:14.943Z,13.93
2023-01-22T20:22:42.944Z,12.77
2023-01-22T20:25:13.796Z,12.87
2023-01-22T20:27:41.931Z,12.93
2023-01-22T20:30:10.985Z,12.37
2023-01-22T20:32:38.829Z,12.93
2023-01-22T20:35:07.546Z,15.17
2023-01-22T20:37:35.534Z,14.00
2023-01-22T20:40:03.405Z,15.93
2023-01-22T20:42:32.637Z,15.30
2023-01-22T20:45:00.436Z,12.67
2023-01-22T20:47:28.243Z,14.03
2023-01-22T20:49:56.044Z,13.13
2023-01-22T20:52:23.840Z,13.90
2023-01-22T20:55:01.511Z,14.37
2023-01-22T20:57:30.340Z,12.93
2023-01-22T20:59:59.512Z,11.53
2023-01-22T21:02:27.592Z,9.03
2023-01-22T21:04:56.488Z,11.23
2023-01-22T21:07:24.367Z,13.13
2023-01-22T21:09:52.139Z,11.80
2023-01-22T21:12:19.960Z,12.50
2023-01-22T21:14:47.777Z,11.63
2023-01-22T21:17:18.805Z,11.97
2023-01-22T21:19:46.607Z,12.13
2023-01-22T21:22:14.441Z,12.73
2023-01-22T21:24:42.340Z,13.17
2023-01-22T21:27:10.166Z,12.73
2023-01-22T21:29:37.968Z,12.87
2023-01-22T21:32:05.908Z,12.30
2023-01-22T21:34:36.311Z,14.37
2023-01-22T21:37:04.166Z,12.27
2023-01-22T21:39:31.965Z,15.77
2023-01-22T21:42:13.862Z,15.33
2023-01-22T21:44:59.154Z,14.97
2023-01-22T21:47:27.260Z,14.17
2023-01-22T21:49:56.419Z,15.60
2023-01-22T21:52:24.241Z,13.77
2023-01-22T21:54:52.204Z,13.67
2023-01-22T21:57:20.439Z,13.60
2023-01-22T21:59:48.245Z,14.03
2023-01-22T22:02:18.682Z,15.07
2023-01-22T22:04:46.764Z,13.90
2023-01-22T22:07:15.918Z,12.87
2023-01-22T22:09:44.282Z,11.53
2023-01-22T22:12:12.111Z,12.33
2023-01-22T22:14:39.913Z,12.10
2023-01-22T22:17:08.535Z,15.53
2023-01-22T22:19:36.359Z,14.53
2023-01-22T22:22:04.209Z,12.30
2023-01-22T22:24:33.400Z,13.30
2023-01-22T22:27:01.198Z,10.73
2023-01-22T22:29:28.971Z,11.80
2023-01-22T22:31:56.837Z,9.27
2023-01-22T22:34:24.745Z,11.93
2023-01-22T22:36:52.565Z,13.70
2023-01-22T22:39:20.359Z,11.70
2023-01-22T22:41:49.552Z,11.17
2023-01-22T22:44:17.841Z,12.13
2023-01-22T22:46:45.653Z,10.50
2023-01-22T22:49:14.579Z,13.67
2023-01-22T22:51:44.327Z,11.53
2023-01-22T22:54:15.762Z,12.80
2023-01-22T22:56:44.516Z,11.43
2023-01-22T22:59:14.360Z,12.13
2023-01-22T23:01:42.436Z,10.13
2023-01-22T23:04:10.278Z,11.70
2023-01-22T23:06:38.172Z,9.27
2023-01-22T23:09:06.799Z,11.20
2023-01-22T23:11:36.295Z,12.27
2023-01-22T23:14:04.722Z,10.17
2023-01-22T23:16:36.881Z,13.43
2023-01-22T23:19:06.558Z,12.07
2023-01-22T23:21:35.180Z,12.37
2023-01-22T23:24:03.583Z,11.67
2023-01-22T23:26:32.017Z,15.00
2023-01-22T23:29:02.282Z,14.37
2023-01-22T23:31:32.791Z,13.57
2023-01-22T23:34:03.522Z,13.40
2023-01-22T23:36:32.692Z,12.43
2023-01-22T23:39:00.589Z,12.77
2023-01-22T23:41:28.508Z,12.03
2023-01-22T23:43:56.400Z,13.77
2023-01-22T23:46:26.525Z,13.80
2023-01-22T23:48:56.010Z,12.87
2023-01-22T23:51:25.847Z,13.30
2023-01-22T23:53:54.231Z,12.23
2023-01-22T23:56:24.430Z,14.47
2023-01-22T23:58:54.226Z,12.80
